Time,TemperatureF,DewpointF,PressureIn,WindDirection,WindDirectionDegrees,WindSpeedMPH,WindSpeedGustMPH,Humidity,HourlyPrecipIn,Conditions,Clouds,dailyrainin,SolarRadiationWatts/m^2,SoftwareType,DateUTC
2013-02-25 00:02:00,9.0,5.0,-100.00,SSE,168,1.0,2.0,85,0.00,,,0.00,1.000000,,2013-02-25 06:02:00,
2013-02-25 00:32:00,8.0,4.0,-100.00,NW,323,2.0,3.0,85,0.00,,,0.00,1.000000,,2013-02-25 06:32:00,
2013-02-25 00:42:00,8.0,4.0,-100.00,NW,323,2.0,3.0,85,0.00,,,0.00,1.000000,,2013-02-25 06:42:00,
2013-02-25 00:52:00,8.0,4.0,-100.00,NW,323,2.0,3.0,85,0.00,,,0.00,1.000000,,2013-02-25 06:52:00,
2013-02-25 01:01:00,8.0,4.0,-100.00,NW,323,2.0,3.0,85,0.00,,,0.00,1.000000,,2013-02-25 07:01:00,
2013-02-25 01:32:00,7.0,3.0,-100.00,WNW,285,1.0,3.0,84,0.00,,,0.00,1.000000,,2013-02-25 07:32:00,
2013-02-25 01:42:00,7.0,3.0,-100.00,WNW,285,1.0,3.0,84,0.00,,,0.00,1.000000,,2013-02-25 07:42:00,
2013-02-25 01:52:00,7.0,3.0,-100.00,WNW,285,1.0,3.0,84,0.00,,,0.00,1.000000,,2013-02-25 07:52:00,
2013-02-25 02:01:00,7.0,3.0,-100.00,WNW,285,1.0,3.0,84,0.00,,,0.00,1.000000,,2013-02-25 08:01:00,
2013-02-25 02:32:00,5.0,1.0,-100.00,NNW,345,1.0,3.0,82,0.00,,,0.00,1.000000,,2013-02-25 08:32:00,
2013-02-25 02:42:00,5.0,1.0,-100.00,NNW,345,1.0,3.0,82,0.00,,,0.00,1.000000,,2013-02-25 08:42:00,
2013-02-25 02:52:00,5.0,1.0,-100.00,NNW,345,1.0,3.0,82,0.00,,,0.00,1.000000,,2013-02-25 08:52:00,
2013-02-25 03:01:00,5.0,1.0,-100.00,NNW,345,1.0,3.0,82,0.00,,,0.00,1.000000,,2013-02-25 09:01:00,
2013-02-25 03:32:00,4.0,0.0,-100.00,ESE,120,1.0,2.0,82,0.00,,,0.00,1.000000,,2013-02-25 09:32:00,
2013-02-25 03:42:00,4.0,0.0,-100.00,ESE,120,1.0,2.0,82,0.00,,,0.00,1.000000,,2013-02-25 09:42:00,
2013-02-25 03:52:00,4.0,0.0,-100.00,ESE,120,1.0,2.0,82,0.00,,,0.00,1.000000,,2013-02-25 09:52:00,
2013-02-25 04:01:00,4.0,0.0,-100.00,ESE,120,1.0,2.0,82,0.00,,,0.00,1.000000,,2013-02-25 10:01:00,
2013-02-25 04:32:00,3.0,-1.0,-100.00,NNW,346,2.0,2.0,82,0.00,,,0.00,1.000000,,2013-02-25 10:32:00,
2013-02-25 04:42:00,3.0,-1.0,-100.00,NNW,346,2.0,2.0,82,0.00,,,0.00,1.000000,,2013-02-25 10:42:00,
2013-02-25 04:52:00,3.0,-1.0,-100.00,NNW,346,2.0,2.0,82,0.00,,,0.00,1.000000,,2013-02-25 10:52:00,
2013-02-25 05:01:00,3.0,-1.0,-100.00,NNW,346,2.0,2.0,82,0.00,,,0.00,1.000000,,2013-02-25 11:01:00,
2013-02-25 05:32:00,2.0,-2.0,-100.00,NNW,329,2.0,3.0,83,0.00,,,0.00,1.000000,,2013-02-25 11:32:00,
2013-02-25 05:42:00,2.0,-2.0,-100.00,NNW,329,2.0,3.0,83,0.00,,,0.00,1.000000,,2013-02-25 11:42:00,
2013-02-25 05:52:00,2.0,-2.0,-100.00,NNW,329,2.0,3.0,83,0.00,,,0.00,1.000000,,2013-02-25 11:52:00,
2013-02-25 06:02:00,2.0,-2.0,-100.00,NNW,329,2.0,3.0,83,0.00,,,0.00,1.000000,,2013-02-25 12:02:00,
2013-02-25 06:32:00,3.0,-1.0,-100.00,ESE,117,1.0,4.0,82,0.00,,,0.00,1.000000,,2013-02-25 12:32:00,
2013-02-25 06:42:00,3.0,-1.0,-100.00,ESE,117,1.0,4.0,82,0.00,,,0.00,1.000000,,2013-02-25 12:42:00,
2013-02-25 06:55:00,3.0,-1.0,-100.00,ESE,117,1.0,4.0,82,0.00,,,0.00,1.000000,,2013-02-25 12:55:00,
2013-02-25 07:02:00,3.0,-1.0,-100.00,ESE,117,1.0,4.0,82,0.00,,,0.00,1.000000,,2013-02-25 13:02:00,
2013-02-25 07:32:00,7.0,4.0,-100.00,North,354,2.0,5.0,86,-99.99,,,0.00,1.000000,,2013-02-25 13:32:00,
2013-02-25 07:42:00,7.0,4.0,-100.00,North,354,2.0,5.0,86,-99.99,,,0.00,1.000000,,2013-02-25 13:42:00,
2013-02-25 07:52:00,7.0,4.0,-100.00,North,354,2.0,5.0,86,-99.99,,,0.00,1.000000,,2013-02-25 13:52:00,
2013-02-25 08:03:00,7.0,4.0,-100.00,North,354,2.0,5.0,86,-99.99,,,0.00,1.000000,,2013-02-25 14:03:00,
2013-02-25 08:32:00,12.0,9.0,-100.00,WNW,283,2.0,5.0,87,0.00,,,0.00,35.000000,,2013-02-25 14:32:00,
2013-02-25 08:42:00,12.0,9.0,-100.00,WNW,283,2.0,5.0,87,0.00,,,0.00,35.000000,,2013-02-25 14:42:00,
2013-02-25 08:52:00,12.0,9.0,-100.00,WNW,283,2.0,5.0,87,0.00,,,0.00,35.000000,,2013-02-25 14:52:00,
2013-02-25 09:02:00,12.0,9.0,-100.00,WNW,283,2.0,5.0,87,0.00,,,0.00,35.000000,,2013-02-25 15:02:00,
2013-02-25 09:32:00,19.0,14.0,-100.00,ESE,110,1.0,4.0,81,0.00,,,0.00,106.000000,,2013-02-25 15:32:00,
2013-02-25 09:42:00,19.0,14.0,-100.00,ESE,110,1.0,4.0,81,0.00,,,0.00,106.000000,,2013-02-25 15:42:00,
2013-02-25 09:52:00,19.0,14.0,-100.00,ESE,110,1.0,4.0,81,0.00,,,0.00,106.000000,,2013-02-25 15:52:00,
2013-02-25 10:02:00,19.0,14.0,-100.00,ESE,110,1.0,4.0,81,0.00,,,0.00,106.000000,,2013-02-25 16:02:00,
2013-02-25 10:32:00,29.0,19.0,-100.00,SSE,160,1.0,3.0,65,0.00,,,0.00,240.000000,,2013-02-25 16:32:00,
2013-02-25 11:01:00,29.0,19.0,-100.00,SSE,160,1.0,3.0,65,0.00,,,0.00,240.000000,,2013-02-25 17:01:00,
2013-02-25 11:32:00,33.0,21.0,-100.00,SE,126,2.0,3.0,60,0.00,,,0.00,371.000000,,2013-02-25 17:32:00,
2013-02-25 12:01:00,33.0,21.0,-100.00,SE,126,2.0,3.0,60,0.00,,,0.00,371.000000,,2013-02-25 18:01:00,
2013-02-25 12:33:00,32.0,21.0,-100.00,SW,227,6.0,10.0,63,0.00,,,0.00,435.000000,,2013-02-25 18:33:00,
2013-02-25 12:42:00,32.0,21.0,-100.00,SW,227,6.0,10.0,63,0.00,,,0.00,435.000000,,2013-02-25 18:42:00,
2013-02-25 12:52:00,32.0,21.0,-100.00,SW,227,6.0,10.0,63,0.00,,,0.00,435.000000,,2013-02-25 18:52:00,
2013-02-25 13:01:00,32.0,21.0,-100.00,SW,227,6.0,10.0,63,0.00,,,0.00,435.000000,,2013-02-25 19:01:00,
2013-02-25 13:32:00,35.0,21.0,-100.00,SW,215,6.0,11.0,57,0.00,,,0.00,557.000000,,2013-02-25 19:32:00,
2013-02-25 13:42:00,35.0,21.0,-100.00,SW,215,6.0,11.0,57,0.00,,,0.00,557.000000,,2013-02-25 19:42:00,
2013-02-25 13:52:00,35.0,21.0,-100.00,SW,215,6.0,11.0,57,0.00,,,0.00,557.000000,,2013-02-25 19:52:00,
2013-02-25 14:01:00,35.0,21.0,-100.00,SW,215,6.0,11.0,57,0.00,,,0.00,557.000000,,2013-02-25 20:01:00,
2013-02-25 14:32:00,35.0,20.0,-100.00,SSW,213,5.0,10.0,55,0.00,,,0.00,587.000000,,2013-02-25 20:32:00,
2013-02-25 14:42:00,35.0,20.0,-100.00,SSW,213,5.0,10.0,55,0.00,,,0.00,587.000000,,2013-02-25 20:42:00,
2013-02-25 14:52:00,35.0,20.0,-100.00,SSW,213,5.0,10.0,55,0.00,,,0.00,587.000000,,2013-02-25 20:52:00,
2013-02-25 15:01:00,35.0,20.0,-100.00,SSW,213,5.0,10.0,55,0.00,,,0.00,587.000000,,2013-02-25 21:01:00,
2013-02-25 15:32:00,36.0,21.0,-100.00,SSW,201,5.0,9.0,55,0.00,,,0.00,497.000000,,2013-02-25 21:32:00,
2013-02-25 15:42:00,36.0,21.0,-100.00,SSW,201,5.0,9.0,55,0.00,,,0.00,497.000000,,2013-02-25 21:42:00,
2013-02-25 15:52:00,36.0,21.0,-100.00,SSW,201,5.0,9.0,55,0.00,,,0.00,497.000000,,2013-02-25 21:52:00,
2013-02-25 16:01:00,36.0,21.0,-100.00,SSW,201,5.0,9.0,55,0.00,,,0.00,497.000000,,2013-02-25 22:01:00,
2013-02-25 16:32:00,35.0,20.0,-100.00,SW,232,4.0,6.0,54,0.00,,,0.00,358.000000,,2013-02-25 22:32:00,
2013-02-25 16:42:00,35.0,20.0,-100.00,SW,232,4.0,6.0,54,0.00,,,0.00,358.000000,,2013-02-25 22:42:00,
2013-02-25 16:52:00,35.0,20.0,-100.00,SW,232,4.0,6.0,54,0.00,,,0.00,358.000000,,2013-02-25 22:52:00,
2013-02-25 17:01:00,35.0,20.0,-100.00,SW,232,4.0,6.0,54,0.00,,,0.00,358.000000,,2013-02-25 23:01:00,
2013-02-25 17:32:00,33.0,19.0,-100.00,SW,225,4.0,7.0,57,0.00,,,0.00,193.000000,,2013-02-25 23:32:00,
2013-02-25 17:42:00,33.0,19.0,-100.00,SW,225,4.0,7.0,57,0.00,,,0.00,193.000000,,2013-02-25 23:42:00,
2013-02-25 17:52:00,33.0,19.0,-100.00,SW,225,4.0,7.0,57,0.00,,,0.00,193.000000,,2013-02-25 23:52:00,
2013-02-25 18:01:00,33.0,19.0,-100.00,SW,225,4.0,7.0,57,0.00,,,0.00,193.000000,,2013-02-26 00:01:00,
2013-02-25 18:32:00,27.0,19.0,-100.00,West,264,2.0,5.0,70,0.00,,,0.00,36.000000,,2013-02-26 00:32:00,
2013-02-25 18:42:00,27.0,19.0,-100.00,West,264,2.0,5.0,70,0.00,,,0.00,36.000000,,2013-02-26 00:42:00,
2013-02-25 18:52:00,27.0,19.0,-100.00,West,264,2.0,5.0,70,0.00,,,0.00,36.000000,,2013-02-26 00:52:00,
2013-02-25 19:02:00,27.0,19.0,-100.00,West,264,2.0,5.0,70,0.00,,,0.00,36.000000,,2013-02-26 01:02:00,
2013-02-25 19:32:00,19.0,15.0,-100.00,NE,37,1.0,2.0,83,0.00,,,0.00,1.000000,,2013-02-26 01:32:00,
2013-02-25 19:42:00,19.0,15.0,-100.00,NE,37,1.0,2.0,83,0.00,,,0.00,1.000000,,2013-02-26 01:42:00,
2013-02-25 19:52:00,19.0,15.0,-100.00,NE,37,1.0,2.0,83,0.00,,,0.00,1.000000,,2013-02-26 01:52:00,
2013-02-25 20:01:00,19.0,15.0,-100.00,NE,37,1.0,2.0,83,0.00,,,0.00,1.000000,,2013-02-26 02:01:00,
2013-02-25 20:32:00,18.0,13.0,-100.00,NE,40,1.0,6.0,82,0.00,,,0.00,1.000000,,2013-02-26 02:32:00,
2013-02-25 20:42:00,18.0,13.0,-100.00,NE,40,1.0,6.0,82,0.00,,,0.00,1.000000,,2013-02-26 02:42:00,
2013-02-25 20:52:00,18.0,13.0,-100.00,NE,40,1.0,6.0,82,0.00,,,0.00,1.000000,,2013-02-26 02:52:00,
2013-02-25 21:02:00,18.0,13.0,-100.00,NE,40,1.0,6.0,82,0.00,,,0.00,1.000000,,2013-02-26 03:02:00,
2013-02-25 21:32:00,13.0,10.0,-100.00,NW,317,3.0,4.0,86,0.00,,,0.00,1.000000,,2013-02-26 03:32:00,
2013-02-25 21:42:00,13.0,10.0,-100.00,NW,317,3.0,4.0,86,0.00,,,0.00,1.000000,,2013-02-26 03:42:00,
2013-02-25 21:52:00,13.0,10.0,-100.00,NW,317,3.0,4.0,86,0.00,,,0.00,1.000000,,2013-02-26 03:52:00,
2013-02-25 22:01:00,13.0,10.0,-100.00,NW,317,3.0,4.0,86,0.00,,,0.00,1.000000,,2013-02-26 04:01:00,
2013-02-25 22:32:00,9.0,6.0,-100.00,WNW,287,2.0,3.0,87,0.00,,,0.00,1.000000,,2013-02-26 04:32:00,
2013-02-25 22:42:00,9.0,6.0,-100.00,WNW,287,2.0,3.0,87,0.00,,,0.00,1.000000,,2013-02-26 04:42:00,
2013-02-25 22:52:00,9.0,6.0,-100.00,WNW,287,2.0,3.0,87,0.00,,,0.00,1.000000,,2013-02-26 04:52:00,
2013-02-25 23:01:00,9.0,6.0,-100.00,WNW,287,2.0,3.0,87,0.00,,,0.00,1.000000,,2013-02-26 05:01:00,
2013-02-25 23:32:00,8.0,4.0,-100.00,SW,233,1.0,3.0,84,0.00,,,0.00,1.000000,,2013-02-26 05:32:00,
2013-02-25 23:43:00,8.0,4.0,-100.00,SW,233,1.0,3.0,84,0.00,,,0.00,1.000000,,2013-02-26 05:43:00,
2013-02-25 23:52:00,8.0,4.0,-100.00,SW,233,1.0,3.0,84,0.00,,,0.00,1.000000,,2013-02-26 05:52:00,